Time;durP1;ratioP1;P1;durP2;ratioP2;P2;SDS_P1;SDS_P2;PMS_P1;PMS_P2;Temp;Humidity;BMP_temperature;BMP_pressure;BME280_temperature;BME280_humidity;BME280_pressure;Samples;Min_cycle;Max_cycle;Signal;HPM_P1;HPM_P2
2023/03/03 00:01:55;;;;;;;12.93;11.77;;;;;;;21.02;33.88;95073.03;6112223;28;111039;-63
2023/03/03 00:04:59;;;;;;;12.40;11.50;;;;;;;20.99;34.21;95070.94;6075955;28;111408;-63
2023/03/03 00:08:04;;;;;;;13.47;12.37;;;;;;;20.97;34.04;95073.13;6085209;28;111581;-63
2023/03/03 00:11:08;;;;;;;12.00;11.00;;;;;;;20.97;33.98;95062.47;6090888;28;109100;-63
2023/03/03 00:14:23;;;;;;;12.17;11.27;;;;;;;20.94;33.90;95058.56;6158052;28;110068;-63
2023/03/03 00:17:28;;;;;;;11.17;10.27;;;;;;;20.96;34.10;95053.72;6088169;28;109899;-62
2023/03/03 00:20:36;;;;;;;11.27;10.37;;;;;;;20.88;34.30;95052.56;6090110;28;110890;-63
2023/03/03 00:23:42;;;;;;;10.30;9.40;;;;;;;20.90;33.79;95050.38;6185393;28;109430;-63
2023/03/03 00:26:46;;;;;;;10.20;9.40;;;;;;;20.88;34.01;95051.78;6118927;28;110052;-62
2023/03/03 00:29:53;;;;;;;10.10;9.30;;;;;;;20.80;33.72;95045.25;6083692;28;109069;-63
2023/03/03 00:32:56;;;;;;;10.63;9.73;;;;;;;20.87;34.03;95052.84;6155332;28;109292;-63
2023/03/03 00:36:21;;;;;;;9.73;8.90;;;;;;;20.87;34.15;95044.88;6131911;28;109368;-63
2023/03/03 00:39:31;;;;;;;9.27;8.57;;;;;;;20.84;33.91;95046.25;6074350;28;109896;-63
2023/03/03 00:42:35;;;;;;;10.03;9.23;;;;;;;20.81;33.72;95043.38;6120642;28;109297;-63
2023/03/03 00:45:45;;;;;;;8.67;8.07;;;;;;;20.84;34.09;95037.50;6082809;28;109516;-63
2023/03/03 00:48:51;;;;;;;8.80;8.00;;;;;;;20.81;33.88;95025.56;6082305;28;109231;-63
2023/03/03 00:51:54;;;;;;;9.40;8.67;;;;;;;20.78;33.97;95023.50;6110840;28;109037;-62
2023/03/03 00:54:59;;;;;;;8.00;7.40;;;;;;;20.83;33.99;95022.59;6149038;28;109364;-63
2023/03/03 00:58:02;;;;;;;8.90;8.17;;;;;;;20.67;33.69;94998.22;6087086;28;109813;-63
2023/03/03 01:01:05;;;;;;;8.23;7.53;;;;;;;20.81;34.09;95014.91;6075800;28;109148;-63
2023/03/03 01:04:09;;;;;;;8.20;7.50;;;;;;;20.84;33.83;95011.69;6207154;28;109357;-63
2023/03/03 01:07:12;;;;;;;7.70;7.10;;;;;;;20.80;33.83;95005.38;6156867;28;109777;-62
2023/03/03 01:10:16;;;;;;;8.27;7.67;;;;;;;20.80;33.90;95005.38;6100333;28;109272;-62
2023/03/03 01:13:22;;;;;;;7.57;6.97;;;;;;;20.81;33.89;94996.31;6148647;28;109211;-62
2023/03/03 01:16:25;;;;;;;7.70;7.10;;;;;;;20.78;33.85;94994.25;6122861;28;109148;-62
2023/03/03 01:19:28;;;;;;;7.17;6.57;;;;;;;20.77;33.85;95003.31;6153360;28;110136;-62
2023/03/03 01:22:32;;;;;;;6.53;6.00;;;;;;;20.79;33.74;94998.47;6122736;28;109300;-62
2023/03/03 01:25:36;;;;;;;6.93;6.37;;;;;;;20.65;33.83;94972.97;6069607;28;109343;-63
2023/03/03 01:28:39;;;;;;;7.20;6.60;;;;;;;20.79;33.89;95001.13;6085199;28;109242;-69
2023/03/03 01:31:43;;;;;;;6.67;6.17;;;;;;;20.78;33.84;94994.25;6090340;28;110071;-63
2023/03/03 01:34:46;;;;;;;7.20;6.70;;;;;;;20.79;33.75;94995.03;6084108;28;109198;-63
2023/03/03 01:37:49;;;;;;;6.50;6.00;;;;;;;20.79;33.88;94984.41;6153813;28;109485;-63
2023/03/03 01:40:55;;;;;;;6.57;6.07;;;;;;;20.78;33.77;94988.13;6129066;28;109236;-63
2023/03/03 01:43:58;;;;;;;5.90;5.40;;;;;;;20.75;33.75;94980.75;6104298;28;110433;-63
2023/03/03 01:47:08;;;;;;;6.57;6.07;;;;;;;20.72;33.50;94982.16;6076855;28;111738;-63
2023/03/03 01:50:14;;;;;;;6.10;5.60;;;;;;;20.75;33.67;94988.75;6082580;28;110808;-62
2023/03/03 01:53:19;;;;;;;6.00;5.50;;;;;;;20.70;33.88;94981.66;6092109;28;110320;-63
2023/03/03 01:56:25;;;;;;;5.50;5.10;;;;;;;20.54;33.68;94959.13;6087576;28;109586;-62
2023/03/03 01:59:32;;;;;;;5.40;5.00;;;;;;;20.72;33.60;94982.16;6112200;28;109325;-63
2023/03/03 02:02:36;;;;;;;5.33;4.90;;;;;;;20.69;33.62;94971.31;6071654;28;109063;-63
2023/03/03 02:05:41;;;;;;;5.70;5.20;;;;;;;20.70;33.68;94984.31;6084582;28;110258;-63
2023/03/03 02:08:52;;;;;;;4.90;4.50;;;;;;;20.71;33.79;94983.25;6078523;28;109215;-63
2023/03/03 02:12:00;;;;;;;5.30;4.90;;;;;;;20.70;33.75;94976.34;6151653;28;110817;-63
2023/03/03 02:15:16;;;;;;;5.13;4.73;;;;;;;20.68;33.62;94973.19;6081653;28;111255;-63
2023/03/03 02:18:20;;;;;;;5.43;5.03;;;;;;;20.70;33.66;94979.00;6086438;28;110234;-63
2023/03/03 02:21:26;;;;;;;5.07;4.67;;;;;;;20.56;33.62;94957.75;6067991;28;109232;-63
2023/03/03 02:24:35;;;;;;;4.70;4.40;;;;;;;20.68;33.53;94975.06;6134882;28;109149;-63
2023/03/03 02:27:40;;;;;;;4.77;4.40;;;;;;;20.67;33.69;94979.59;6087510;28;109337;-63
2023/03/03 02:30:48;;;;;;;4.93;4.53;;;;;;;20.65;33.98;94980.97;6114078;28;110986;-63
2023/03/03 02:33:53;;;;;;;4.33;4.03;;;;;;;20.64;33.59;94985.50;6074422;28;110093;-63
2023/03/03 02:36:56;;;;;;;4.07;3.77;;;;;;;20.66;33.86;94975.34;6117887;28;109847;-63
2023/03/03 02:40:00;;;;;;;4.50;4.20;;;;;;;20.67;33.84;94981.44;6107397;28;108907;-63
2023/03/03 02:43:07;;;;;;;4.03;3.73;;;;;;;20.66;33.40;94978.00;6073387;28;111481;-63
2023/03/03 02:46:10;;;;;;;4.73;4.43;;;;;;;20.64;33.74;94974.84;6105992;28;110091;-66
2023/03/03 02:49:15;;;;;;;4.57;4.27;;;;;;;20.63;33.55;94976.72;6092156;28;109546;-66
2023/03/03 02:52:18;;;;;;;4.67;4.30;;;;;;;20.65;33.53;94975.66;6102803;28;109448;-65
2023/03/03 02:55:21;;;;;;;4.33;4.03;;;;;;;20.65;33.70;94973.78;6077120;28;111443;-65
2023/03/03 02:58:26;;;;;;;4.20;3.90;;;;;;;20.65;33.44;94973.78;6100851;28;110290;-64
2023/03/03 03:01:30;;;;;;;3.97;3.67;;;;;;;20.63;33.54;94973.28;6106080;28;109385;-65
2023/03/03 03:04:34;;;;;;;3.80;3.50;;;;;;;20.66;33.40;94979.88;6120732;28;109003;-65
2023/03/03 03:07:37;;;;;;;4.00;3.70;;;;;;;20.46;33.66;94941.22;6076297;28;110343;-65
2023/03/03 03:10:40;;;;;;;4.10;3.80;;;;;;;20.59;33.62;94964.34;6134095;28;109172;-65
2023/03/03 03:13:45;;;;;;;4.03;3.73;;;;;;;20.61;33.60;94970.13;6098604;28;109297;-65
2023/03/03 03:16:48;;;;;;;4.30;4.00;;;;;;;20.56;33.58;94963.06;6093462;28;109135;-64
2023/03/03 03:19:51;;;;;;;4.40;4.00;;;;;;;20.61;33.42;94970.94;6090460;28;109045;-65
2023/03/03 03:22:54;;;;;;;4.13;3.83;;;;;;;20.56;33.46;94952.44;6136270;28;109183;-65
2023/03/03 03:25:57;;;;;;;3.93;3.63;;;;;;;20.60;33.57;94964.03;6085694;28;109247;-64
2023/03/03 03:29:02;;;;;;;3.40;3.10;;;;;;;20.53;33.67;94953.03;6082007;28;109272;-65
2023/03/03 03:32:05;;;;;;;3.60;3.30;;;;;;;20.59;33.59;94961.69;6106998;28;110306;-66
2023/03/03 03:35:10;;;;;;;3.63;3.43;;;;;;;20.58;33.57;94960.09;6090806;28;110088;-66
2023/03/03 03:38:14;;;;;;;3.87;3.67;;;;;;;20.44;33.65;94938.06;6081544;28;110168;-65
2023/03/03 03:41:17;;;;;;;3.77;3.47;;;;;;;20.56;33.48;94951.66;6082600;28;111893;-65
2023/03/03 03:44:24;;;;;;;3.77;3.47;;;;;;;20.49;33.57;94935.28;6114091;28;108946;-66
2023/03/03 03:47:27;;;;;;;3.60;3.40;;;;;;;20.56;33.61;94947.13;6090159;28;109247;-66
2023/03/03 03:50:31;;;;;;;3.60;3.30;;;;;;;20.01;33.64;94874.63;6082841;28;110814;-65
2023/03/03 03:53:34;;;;;;;3.67;3.40;;;;;;;20.54;33.73;94941.31;6177089;28;110236;-66
2023/03/03 03:56:37;;;;;;;3.40;3.20;;;;;;;20.54;33.70;94954.59;6135800;28;109754;-65
2023/03/03 03:59:41;;;;;;;3.70;3.40;;;;;;;20.53;33.47;94947.72;6076213;28;110622;-66
2023/03/03 04:02:44;;;;;;;3.47;3.23;;;;;;;20.54;33.55;94932.56;6163160;28;108989;-65
2023/03/03 04:05:49;;;;;;;3.10;2.90;;;;;;;20.51;33.75;94933.94;6211281;28;109150;-65
2023/03/03 04:08:53;;;;;;;3.27;3.07;;;;;;;20.47;33.58;94930.28;6109750;28;110002;-65
2023/03/03 04:11:56;;;;;;;3.10;2.90;;;;;;;20.51;33.39;94936.59;6087416;28;109536;-72
2023/03/03 04:15:00;;;;;;;3.70;3.40;;;;;;;20.33;33.50;94905.59;6076519;28;110709;-64
2023/03/03 04:18:04;;;;;;;3.20;3.00;;;;;;;20.48;33.50;94925.75;6093082;28;109455;-65
2023/03/03 04:21:07;;;;;;;3.20;3.00;;;;;;;20.44;33.51;94920.25;6115699;28;111113;-65
2023/03/03 04:24:10;;;;;;;3.57;3.30;;;;;;;20.52;33.79;94937.38;6124323;28;111478;-65
2023/03/03 04:27:14;;;;;;;3.30;3.10;;;;;;;20.51;33.60;94933.16;6103815;28;109674;-65
2023/03/03 04:30:19;;;;;;;4.00;3.70;;;;;;;20.49;33.49;94935.28;6101607;28;109298;-65
2023/03/03 04:33:22;;;;;;;4.00;3.70;;;;;;;20.48;33.52;94939.81;6116213;28;109077;-66
2023/03/03 04:36:25;;;;;;;3.50;3.30;;;;;;;20.50;33.52;94936.88;6132402;28;109663;-65
2023/03/03 04:39:29;;;;;;;3.20;2.90;;;;;;;20.48;33.28;94931.84;6114753;28;111857;-65
2023/03/03 04:42:32;;;;;;;3.50;3.30;;;;;;;20.41;33.52;94918.19;6084785;28;109411;-65
2023/03/03 04:45:37;;;;;;;3.13;2.93;;;;;;;20.50;33.47;94927.06;6081488;28;109180;-66
2023/03/03 04:48:40;;;;;;;3.20;3.00;;;;;;;20.46;33.31;94928.72;6076926;28;109324;-65
2023/03/03 04:51:43;;;;;;;3.70;3.50;;;;;;;20.48;33.41;94923.88;6121443;28;109383;-66
2023/03/03 04:54:46;;;;;;;3.50;3.20;;;;;;;20.44;33.64;94933.53;6080417;28;108906;-66
2023/03/03 04:57:50;;;;;;;3.87;3.57;;;;;;;20.49;33.75;94937.94;6085068;28;109309;-66
2023/03/03 05:00:56;;;;;;;2.90;2.70;;;;;;;20.33;33.66;94910.91;6086228;28;110286;-66
2023/03/03 05:03:59;;;;;;;4.17;3.87;;;;;;;20.50;33.41;94939.53;6085096;28;111135;-65
2023/03/03 05:07:02;;;;;;;3.83;3.53;;;;;;;20.52;33.28;94940.03;6085301;28;109235;-66
2023/03/03 05:10:07;;;;;;;3.30;3.07;;;;;;;20.36;33.42;94920.19;6079461;28;110130;-65
2023/03/03 05:13:14;;;;;;;3.80;3.50;;;;;;;20.49;33.55;94937.94;6080709;28;110414;-65
2023/03/03 05:16:18;;;;;;;3.53;3.17;;;;;;;20.48;33.56;94947.00;6121745;28;108920;-65
2023/03/03 05:19:22;;;;;;;3.30;3.10;;;;;;;20.36;33.25;94914.88;6162206;28;109811;-65
2023/03/03 05:22:25;;;;;;;6.20;3.93;;;;;;;20.35;33.42;94953.94;6071630;28;111806;-65
2023/03/03 05:25:28;;;;;;;6.07;5.57;;;;;;;20.24;33.13;94955.19;6080265;28;110194;-65
2023/03/03 05:28:32;;;;;;;7.07;6.53;;;;;;;19.94;33.47;94951.22;6086584;28;109349;-65
2023/03/03 05:31:37;;;;;;;6.50;6.00;;;;;;;20.05;33.26;94960.59;6100531;28;109095;-65
2023/03/03 05:34:40;;;;;;;5.77;5.27;;;;;;;20.12;34.69;94946.91;6073265;28;109970;-65
2023/03/03 05:37:46;;;;;;;6.90;6.30;;;;;;;20.23;36.68;94942.97;6079566;28;109229;-65
2023/03/03 05:40:49;;;;;;;7.27;6.77;;;;;;;20.45;36.62;94960.91;6074584;28;109311;-67
2023/03/03 05:43:52;;;;;;;6.20;5.70;;;;;;;20.22;36.18;94905.00;6081718;28;109702;-65
2023/03/03 05:46:57;;;;;;;9.13;6.50;;;;;;;20.58;35.59;94963.56;6077153;28;110281;-65
2023/03/03 05:50:01;;;;;;;7.83;7.10;;;;;;;20.65;35.07;94960.47;6082578;28;109224;-67
2023/03/03 05:53:04;;;;;;;6.77;6.17;;;;;;;20.37;33.95;94919.09;6105439;28;110877;-63
2023/03/03 05:56:08;;;;;;;7.53;6.63;;;;;;;20.59;33.34;94964.34;6072834;28;109189;-64
2023/03/03 05:59:11;;;;;;;7.07;6.37;;;;;;;20.58;32.73;94963.56;6097431;28;109027;-63
2023/03/03 06:02:15;;;;;;;7.33;6.73;;;;;;;20.57;33.14;94961.97;6137819;28;110198;-65
2023/03/03 06:05:19;;;;;;;7.70;7.00;;;;;;;20.53;32.65;94958.34;6210292;28;109165;-65
2023/03/03 06:08:22;;;;;;;6.80;6.20;;;;;;;20.51;32.94;94965.84;6149482;28;109325;-64
2023/03/03 06:11:25;;;;;;;6.80;6.20;;;;;;;20.44;32.60;94938.84;6085479;28;110087;-64
2023/03/03 06:14:28;;;;;;;7.83;6.90;;;;;;;20.48;33.17;94931.06;6085226;28;108975;-63
2023/03/03 06:17:32;;;;;;;8.23;6.30;;;;;;;20.78;33.48;94961.53;6084241;28;108865;-63
2023/03/03 06:20:37;;;;;;;7.20;5.50;;;;;;;20.85;33.07;94961.94;6163207;28;109324;-64
2023/03/03 06:23:41;;;;;;;6.97;6.07;;;;;;;20.87;33.12;94963.22;6210310;28;108886;-64
2023/03/03 06:26:44;;;;;;;6.67;6.07;;;;;;;20.95;33.39;94974.22;6146306;28;108946;-63
2023/03/03 06:29:47;;;;;;;6.43;5.87;;;;;;;20.97;33.50;94972.81;6133920;28;109203;-64
2023/03/03 06:32:51;;;;;;;8.10;6.60;;;;;;;20.92;34.05;94957.78;6204268;28;110149;-64
2023/03/03 06:35:55;;;;;;;7.00;6.40;;;;;;;20.89;34.13;94965.56;6143497;28;109045;-64
2023/03/03 06:38:58;;;;;;;6.23;5.63;;;;;;;20.80;33.87;94946.84;6082646;28;109040;-65
2023/03/03 06:42:01;;;;;;;7.83;5.90;;;;;;;20.93;33.84;94969.97;6073819;28;109306;-64
2023/03/03 06:45:05;;;;;;;5.87;5.30;;;;;;;20.93;33.86;94964.66;6084235;28;108986;-65
2023/03/03 06:48:09;;;;;;;6.73;5.03;;;;;;;20.94;33.88;94970.75;6084446;28;109860;-64
2023/03/03 06:51:23;;;;;;;7.30;5.37;;;;;;;20.93;33.29;94969.19;6085047;28;109017;-65
2023/03/03 06:54:29;;;;;;;5.80;5.30;;;;;;;20.75;33.68;94948.84;6074163;28;109936;-65
2023/03/03 06:57:34;;;;;;;6.30;5.70;;;;;;;20.89;33.52;94971.69;6084918;28;109136;-65
2023/03/03 07:00:37;;;;;;;6.53;5.93;;;;;;;20.87;33.31;94967.75;6085005;28;109407;-65
2023/03/03 07:03:42;;;;;;;6.30;5.70;;;;;;;20.85;33.52;94973.38;6078586;28;109362;-64
2023/03/03 07:06:45;;;;;;;6.20;5.43;;;;;;;20.72;33.21;94952.13;6078132;28;109011;-65
2023/03/03 07:09:51;;;;;;;6.77;5.73;;;;;;;20.80;33.43;94970.78;6083447;28;109225;-65
2023/03/03 07:12:57;;;;;;;5.93;5.43;;;;;;;20.77;33.54;94974.06;6084488;28;112234;-65
2023/03/03 07:16:04;;;;;;;5.57;5.07;;;;;;;20.62;33.43;94950.44;6073121;28;109192;-66
2023/03/03 07:19:19;;;;;;;6.00;5.50;;;;;;;20.74;33.22;94979.19;6083842;28;111733;-66
2023/03/03 07:22:25;;;;;;;6.43;5.37;;;;;;;20.71;33.75;94969.94;6083829;28;109418;-65
2023/03/03 07:25:32;;;;;;;5.67;5.17;;;;;;;20.70;33.77;94972.91;6084016;28;110439;-66
2023/03/03 07:28:35;;;;;;;6.07;4.93;;;;;;;20.66;33.48;94964.72;6072580;28;109369;-64
2023/03/03 07:31:40;;;;;;;5.80;5.27;;;;;;;20.64;33.62;94966.88;6085785;28;109571;-65
2023/03/03 07:34:51;;;;;;;5.90;5.40;;;;;;;20.60;33.86;94965.91;6087156;28;109543;-65
2023/03/03 07:37:55;;;;;;;5.53;5.03;;;;;;;20.57;33.54;94964.63;6081764;28;109101;-65
2023/03/03 07:41:01;;;;;;;5.60;5.10;;;;;;;20.56;33.61;94965.72;6081666;28;111801;-65
2023/03/03 07:44:19;;;;;;;5.63;5.20;;;;;;;20.53;33.70;94962.88;6086885;28;109340;-64
2023/03/03 07:47:25;;;;;;;5.80;5.23;;;;;;;20.53;33.72;94968.19;6087355;28;110327;-65
2023/03/03 07:50:30;;;;;;;5.17;4.67;;;;;;;20.51;33.80;94967.72;6076372;28;110189;-75
2023/03/03 07:53:36;;;;;;;5.83;4.90;;;;;;;20.51;33.57;94965.06;6087229;28;109248;-65
2023/03/03 07:56:40;;;;;;;5.13;4.73;;;;;;;20.53;33.49;94962.88;6087705;28;109164;-65
2023/03/03 07:59:48;;;;;;;6.27;5.70;;;;;;;20.55;33.53;94960.72;6087252;28;109041;-64
2023/03/03 08:02:58;;;;;;;5.43;4.90;;;;;;;20.57;33.65;94963.84;6076121;28;109183;-64
2023/03/03 08:06:25;;;;;;;4.90;4.50;;;;;;;20.59;33.65;94961.69;6087679;28;108826;-65
2023/03/03 08:09:47;;;;;;;4.93;4.53;;;;;;;20.60;33.70;94961.38;6087394;28;109262;-65
2023/03/03 08:12:50;;;;;;;6.40;5.47;;;;;;;20.58;33.18;94954.78;6074975;28;109156;-64
2023/03/03 08:16:00;;;;;;;5.00;4.57;;;;;;;20.59;33.41;94946.50;6087535;28;111069;-65
2023/03/03 08:19:06;;;;;;;4.93;4.40;;;;;;;20.63;33.36;94952.00;6087540;28;109014;-65
2023/03/03 08:22:16;;;;;;;4.90;4.50;;;;;;;20.63;33.22;94952.00;6087042;28;109198;-65
2023/03/03 08:25:19;;;;;;;5.17;4.67;;;;;;;20.63;33.32;94947.47;6076607;28;109632;-65
2023/03/03 08:28:22;;;;;;;5.20;4.70;;;;;;;20.61;33.39;94943.56;6086514;28;109268;-65
2023/03/03 08:31:26;;;;;;;4.47;4.10;;;;;;;20.41;33.45;94912.09;6086382;28;109247;-65
2023/03/03 08:34:43;;;;;;;4.80;4.40;;;;;;;20.62;33.39;94950.44;6081888;28;110209;-65
2023/03/03 08:37:47;;;;;;;5.57;5.07;;;;;;;20.57;33.57;94937.25;6081997;28;111055;-65
2023/03/03 08:40:51;;;;;;;4.63;4.23;;;;;;;20.59;33.41;94945.72;6087171;28;109092;-65
2023/03/03 08:43:54;;;;;;;4.57;4.23;;;;;;;20.59;33.41;94943.06;6084345;28;109084;-68
2023/03/03 08:46:57;;;;;;;5.03;4.63;;;;;;;20.54;33.52;94938.66;6076125;28;108927;-64
2023/03/03 08:50:00;;;;;;;4.60;4.20;;;;;;;20.54;33.44;94953.81;6087185;28;109036;-65
2023/03/03 08:53:06;;;;;;;4.50;4.20;;;;;;;20.49;33.64;94938.75;6086738;28;109255;-65
2023/03/03 08:56:09;;;;;;;5.00;4.60;;;;;;;20.52;33.74;94937.38;6086533;28;109207;-65
2023/03/03 08:59:12;;;;;;;4.27;3.97;;;;;;;20.51;33.43;94951.75;6075459;28;110141;-65
2023/03/03 09:02:16;;;;;;;5.27;4.80;;;;;;;20.48;33.42;94952.31;6086015;28;110121;-63
2023/03/03 09:05:21;;;;;;;4.87;4.47;;;;;;;20.49;33.40;94948.59;6086132;28;109164;-65
2023/03/03 09:08:25;;;;;;;4.80;4.40;;;;;;;20.48;33.44;94947.81;6084565;28;108778;-64
2023/03/03 09:11:31;;;;;;;4.70;4.30;;;;;;;20.48;33.51;94949.66;6078547;28;111404;-64
2023/03/03 09:14:34;;;;;;;5.00;4.60;;;;;;;20.48;33.46;94949.66;6085796;28;108815;-65
2023/03/03 09:17:37;;;;;;;4.20;3.90;;;;;;;20.48;33.59;94950.47;6085342;28;109198;-65
2023/03/03 09:20:42;;;;;;;5.00;4.60;;;;;;;20.48;33.38;94939.03;6074917;28;109128;-65
2023/03/03 09:23:53;;;;;;;4.63;4.23;;;;;;;20.50;33.49;94944.84;6085364;28;109322;-70
2023/03/03 09:26:58;;;;;;;4.93;4.57;;;;;;;20.44;33.23;94930.09;6085668;28;109281;-64
2023/03/03 09:30:09;;;;;;;4.53;4.13;;;;;;;20.47;33.42;94934.81;6085377;28;108967;-65
2023/03/03 09:33:28;;;;;;;5.07;4.60;;;;;;;20.51;33.46;94941.91;6075034;28;109964;-64
2023/03/03 09:36:36;;;;;;;5.27;4.87;;;;;;;20.49;33.49;94948.59;6086789;28;109029;-64
2023/03/03 09:39:41;;;;;;;4.20;3.87;;;;;;;20.52;33.18;94942.69;6086299;28;109067;-64
2023/03/03 09:43:03;;;;;;;5.37;4.97;;;;;;;20.48;33.28;94928.41;6080795;28;110167;-64
2023/03/03 09:46:13;;;;;;;4.87;4.47;;;;;;;20.52;33.40;94934.72;6079540;28;109807;-65
2023/03/03 09:49:26;;;;;;;3.97;3.67;;;;;;;20.42;33.42;94921.63;6085416;28;109250;-65
2023/03/03 09:52:38;;;;;;;4.47;4.07;;;;;;;20.53;33.29;94946.94;6085820;28;112788;-64
2023/03/03 09:55:50;;;;;;;4.40;4.03;;;;;;;20.53;33.68;94946.94;6074058;28;110082;-64
2023/03/03 09:59:05;;;;;;;4.53;4.13;;;;;;;20.50;33.27;94935.03;6085010;28;109122;-64
2023/03/03 10:02:25;;;;;;;4.97;4.57;;;;;;;20.53;33.38;94930.97;6085076;28;109222;-64
2023/03/03 10:05:45;;;;;;;4.47;4.17;;;;;;;20.52;33.22;94934.72;6079702;28;109194;-63
2023/03/03 10:09:02;;;;;;;3.97;3.67;;;;;;;20.47;33.37;94922.31;6079296;28;109104;-64
2023/03/03 10:12:15;;;;;;;4.57;4.27;;;;;;;20.52;33.35;94930.19;6084923;28;110193;-63
2023/03/03 10:15:32;;;;;;;4.93;4.53;;;;;;;20.41;33.46;94918.19;6084949;28;108978;-66
2023/03/03 10:18:42;;;;;;;4.80;4.40;;;;;;;20.51;33.37;94928.63;6072952;28;109352;-65
2023/03/03 10:21:50;;;;;;;4.50;4.10;;;;;;;20.51;33.38;94927.84;6085095;28;110139;-65
2023/03/03 10:25:08;;;;;;;4.37;3.97;;;;;;;20.47;33.21;94916.22;6084970;28;109063;-65
2023/03/03 10:28:32;;;;;;;4.17;3.87;;;;;;;20.20;33.54;94874.50;6080262;28;108971;-65
2023/03/03 10:31:48;;;;;;;4.93;4.53;;;;;;;20.46;33.54;94911.97;6080511;28;108947;-64
2023/03/03 10:35:16;;;;;;;4.70;4.30;;;;;;;20.47;33.39;94913.53;6084960;28;110122;-64
2023/03/03 10:38:36;;;;;;;5.03;4.63;;;;;;;20.45;33.48;94907.75;6084445;28;109105;-63
2023/03/03 10:41:50;;;;;;;4.63;4.27;;;;;;;20.46;33.33;94912.75;6074113;28;108886;-66
2023/03/03 10:45:13;;;;;;;5.30;4.80;;;;;;;20.21;33.37;94865.44;6084843;28;111900;-65
2023/03/03 10:48:42;;;;;;;4.57;4.27;;;;;;;20.46;33.45;94909.31;6084345;28;109884;-64
2023/03/03 10:52:04;;;;;;;5.30;4.83;;;;;;;20.47;33.49;94911.69;6073295;28;110151;-69
2023/03/03 10:55:26;;;;;;;4.70;4.30;;;;;;;20.47;33.48;94903.69;6083875;28;109156;-65
2023/03/03 10:58:42;;;;;;;5.03;4.53;;;;;;;20.47;33.49;94897.59;6084410;28;109044;-65
2023/03/03 11:01:53;;;;;;;5.00;4.60;;;;;;;20.46;33.42;94899.47;6084524;28;109195;-64
2023/03/03 11:05:19;;;;;;;4.93;4.57;;;;;;;20.47;33.54;94898.38;6073339;28;109234;-65
2023/03/03 11:08:28;;;;;;;4.90;4.50;;;;;;;20.38;33.33;94878.13;6087834;28;109076;-65
2023/03/03 11:11:39;;;;;;;4.80;4.50;;;;;;;20.47;33.38;94892.28;6088256;28;109058;-63
2023/03/03 11:14:47;;;;;;;4.63;4.23;;;;;;;20.48;33.56;94893.84;6077640;28;109956;-64
2023/03/03 11:18:06;;;;;;;5.10;4.70;;;;;;;20.10;33.32;94827.66;6087328;28;108901;-64
2023/03/03 11:21:18;;;;;;;4.47;4.17;;;;;;;20.48;33.12;94880.56;6087285;28;109121;-64
2023/03/03 11:24:35;;;;;;;5.40;5.00;;;;;;;20.45;33.32;94871.31;6086380;28;109021;-64
2023/03/03 11:27:58;;;;;;;4.50;4.10;;;;;;;20.46;33.39;94872.09;6076760;28;110109;-64
2023/03/03 11:31:13;;;;;;;4.90;4.50;;;;;;;20.47;33.58;94877.13;6087393;28;109354;-64
2023/03/03 11:34:37;;;;;;;4.90;4.50;;;;;;;20.47;33.37;94874.47;6087699;28;108809;-65
2023/03/03 11:37:46;;;;;;;4.90;4.50;;;;;;;20.48;33.32;94869.94;6075958;28;112048;-64
2023/03/03 11:40:55;;;;;;;4.23;3.93;;;;;;;20.32;33.51;94851.66;6086893;28;109080;-63
2023/03/03 11:44:05;;;;;;;4.57;4.27;;;;;;;20.39;33.53;94861.91;6087542;28;109137;-64
2023/03/03 11:47:19;;;;;;;4.40;4.10;;;;;;;20.41;33.36;94856.28;6087748;28;109260;-62
2023/03/03 11:50:31;;;;;;;5.00;4.60;;;;;;;20.46;33.46;94866.78;6077029;28;110822;-63
2023/03/03 11:53:47;;;;;;;4.83;4.53;;;;;;;20.46;33.50;94867.56;6086686;28;109075;-63
2023/03/03 11:56:55;;;;;;;4.83;4.43;;;;;;;20.46;33.56;94864.91;6086711;28;109227;-64
2023/03/03 12:00:05;;;;;;;5.20;4.80;;;;;;;20.45;33.65;94858.03;6075954;28;110838;-64
2023/03/03 12:03:29;;;;;;;4.63;4.23;;;;;;;20.46;33.24;94861.47;6086450;28;109148;-63
2023/03/03 12:06:47;;;;;;;4.40;4.10;;;;;;;20.46;33.63;94862.25;6086967;28;109313;-65
2023/03/03 12:10:02;;;;;;;4.50;4.20;;;;;;;20.46;33.34;94862.25;6087787;28;108918;-63
2023/03/03 12:13:10;;;;;;;5.33;4.93;;;;;;;20.43;33.46;94851.44;6075896;28;109270;-64
2023/03/03 12:16:20;;;;;;;4.73;4.33;;;;;;;20.46;33.46;94866.78;6087602;28;109739;-64
2023/03/03 12:19:39;;;;;;;4.77;4.37;;;;;;;20.46;33.50;94864.13;6087388;28;108744;-63
2023/03/03 12:22:53;;;;;;;4.30;4.00;;;;;;;20.44;33.48;94864.44;6076622;28;109253;-65
2023/03/03 12:26:16;;;;;;;5.40;4.90;;;;;;;20.46;33.81;94861.47;6087512;28;109081;-65
2023/03/03 12:29:33;;;;;;;5.20;4.80;;;;;;;20.44;33.69;94863.66;6086115;28;109394;-64
2023/03/03 12:32:55;;;;;;;5.03;4.63;;;;;;;20.41;33.64;94865.03;6087001;28;109222;-64
2023/03/03 12:36:13;;;;;;;4.50;4.10;;;;;;;20.31;33.60;94852.75;6080816;28;109435;-65
2023/03/03 12:39:29;;;;;;;4.70;4.40;;;;;;;20.45;33.51;94873.19;6087217;28;109016;-65
2023/03/03 12:42:49;;;;;;;5.13;4.73;;;;;;;20.39;33.65;94859.25;6087579;28;109963;-63
2023/03/03 12:46:02;;;;;;;4.73;4.43;;;;;;;20.43;33.47;94873.50;6076604;28;109549;-64
2023/03/03 12:49:05;;;;;;;4.83;4.43;;;;;;;20.43;33.52;94868.19;6086714;28;108963;-65
2023/03/03 12:52:23;;;;;;;5.10;4.70;;;;;;;20.42;33.51;94865.81;6087386;28;109376;-63
2023/03/03 12:55:38;;;;;;;4.97;4.57;;;;;;;20.43;33.32;94868.19;6087044;28;108906;-65
2023/03/03 12:58:51;;;;;;;4.93;4.53;;;;;;;20.43;33.57;94862.06;6080135;28;110293;-64
2023/03/03 13:02:13;;;;;;;4.50;4.20;;;;;;;20.39;33.65;94859.25;6084422;28;109224;-64
2023/03/03 13:05:24;;;;;;;5.00;4.60;;;;;;;20.40;33.55;94849.41;6085741;28;109058;-64
2023/03/03 13:08:43;;;;;;;5.07;4.67;;;;;;;20.41;33.61;94864.25;6075567;28;109343;-64
2023/03/03 13:12:05;;;;;;;5.20;4.80;;;;;;;20.40;33.56;94862.69;6085867;28;109858;-65
2023/03/03 13:15:15;;;;;;;5.60;5.10;;;;;;;20.40;33.69;94852.84;6086187;28;110213;-64
2023/03/03 13:18:30;;;;;;;5.37;4.97;;;;;;;20.40;33.69;94857.38;6083350;28;109535;-64
2023/03/03 13:21:40;;;;;;;5.33;4.93;;;;;;;20.40;33.44;94858.16;6079208;28;109468;-64
2023/03/03 13:24:55;;;;;;;5.17;4.77;;;;;;;20.41;33.51;94861.59;6086565;28;109182;-65
2023/03/03 13:28:06;;;;;;;5.27;4.80;;;;;;;20.40;33.43;94852.84;6086051;28;109328;-65
2023/03/03 13:31:18;;;;;;;4.73;4.43;;;;;;;20.42;33.58;94858.63;6074511;28;112315;-65
2023/03/03 13:34:37;;;;;;;5.00;4.60;;;;;;;20.37;33.83;94855.31;6084834;28;109089;-72
2023/03/03 13:37:45;;;;;;;5.00;4.60;;;;;;;20.39;33.72;94859.25;6085567;28;109067;-65
2023/03/03 13:40:54;;;;;;;4.87;4.47;;;;;;;20.39;33.73;94855.78;6085865;28;110877;-65
2023/03/03 13:44:04;;;;;;;5.30;4.90;;;;;;;20.27;33.57;94835.03;6075741;28;109312;-65
2023/03/03 13:47:16;;;;;;;5.17;4.77;;;;;;;20.38;33.57;94854.22;6086350;28;109143;-65
2023/03/03 13:50:26;;;;;;;4.90;4.50;;;;;;;20.38;33.70;94849.69;6085494;28;109265;-71
2023/03/03 13:53:43;;;;;;;5.10;4.73;;;;;;;20.37;33.68;94856.09;6074867;28;109079;-65
2023/03/03 13:57:05;;;;;;;4.83;4.43;;;;;;;20.27;33.70;94835.84;6086133;28;108792;-65
2023/03/03 14:00:21;;;;;;;4.93;4.63;;;;;;;20.38;33.84;94843.59;6085183;28;109126;-64
2023/03/03 14:03:54;;;;;;;5.03;4.63;;;;;;;20.38;33.74;94855.00;6084477;28;109212;-64
2023/03/03 14:07:03;;;;;;;4.43;4.13;;;;;;;20.37;33.62;94850.78;6078972;28;109301;-65
2023/03/03 14:10:11;;;;;;;4.73;4.33;;;;;;;20.23;33.63;94829.53;6085716;28;112473;-64
2023/03/03 14:13:23;;;;;;;4.93;4.40;;;;;;;20.38;34.01;94860.31;6085514;28;110042;-64
2023/03/03 14:16:44;;;;;;;4.87;4.47;;;;;;;20.37;33.77;94848.13;6074368;28;109027;-64
2023/03/03 14:19:51;;;;;;;4.90;4.50;;;;;;;20.37;33.74;94847.34;6085475;28;110015;-65
2023/03/03 14:22:58;;;;;;;4.33;4.03;;;;;;;20.37;33.84;94848.13;6084683;28;109338;-63
2023/03/03 14:26:08;;;;;;;4.70;4.40;;;;;;;20.37;33.56;94845.47;6085345;28;110100;-64
2023/03/03 14:29:21;;;;;;;4.27;3.97;;;;;;;20.36;33.53;94845.78;6073385;28;109068;-64
2023/03/03 14:32:27;;;;;;;4.53;4.17;;;;;;;20.30;33.80;94835.22;6084846;28;109242;-64
2023/03/03 14:36:01;;;;;;;4.30;4.00;;;;;;;20.35;33.87;94846.84;6084503;28;109102;-65